createdAt,value
2017-04-06T00:00:09.276Z,88.4
2017-04-06T00:01:11.094Z,88.6
2017-04-06T00:02:12.886Z,88.7
2017-04-06T00:03:14.781Z,88.3
2017-04-06T00:04:16.904Z,88.4
2017-04-06T00:05:18.722Z,88.6
2017-04-06T00:06:20.509Z,88.7
2017-04-06T00:07:22.317Z,88.8
2017-04-06T00:08:24.115Z,89.3
2017-04-06T00:09:26.441Z,89.6
2017-04-06T00:10:28.237Z,89.5
2017-04-06T00:11:30.233Z,89.3
2017-04-06T00:12:32.024Z,89.6
2017-04-06T00:13:33.818Z,90.1
2017-04-06T00:14:35.602Z,89
2017-04-06T00:15:37.473Z,88.9
2017-04-06T00:16:39.253Z,88.8
2017-04-06T00:17:41.257Z,89.1
2017-04-06T00:18:43.039Z,88.8
2017-04-06T00:19:44.839Z,88.6
2017-04-06T00:20:46.633Z,88.8
2017-04-06T00:21:48.501Z,89.2
2017-04-06T00:22:50.289Z,88.7
2017-04-06T00:23:52.087Z,89
2017-04-06T00:24:53.882Z,89
2017-04-06T00:25:55.679Z,89
2017-04-06T00:26:57.475Z,89.4
2017-04-06T00:27:59.399Z,89.9
2017-04-06T00:29:01.178Z,90.2
2017-04-06T00:30:02.975Z,90.2
2017-04-06T00:31:04.767Z,89.8
2017-04-06T00:32:06.560Z,89.5
2017-04-06T00:33:09.024Z,89.5
2017-04-06T00:34:11.154Z,89.7
2017-04-06T00:35:13.063Z,89.8
2017-04-06T00:36:14.863Z,89.1
2017-04-06T00:37:16.640Z,89.2
2017-04-06T00:38:18.434Z,89.1
2017-04-06T00:39:20.225Z,89.4
2017-04-06T00:40:22.361Z,89.6
2017-04-06T00:41:24.260Z,89.7
2017-04-06T00:42:26.064Z,89.6
2017-04-06T00:43:27.858Z,89.7
2017-04-06T00:44:29.646Z,89.7
2017-04-06T00:45:31.434Z,89.1
2017-04-06T00:46:33.223Z,89.1
2017-04-06T00:47:35.135Z,89.4
2017-04-06T00:48:36.938Z,89.3
2017-04-06T00:49:38.730Z,89.7
2017-04-06T00:50:40.525Z,89.7
2017-04-06T00:51:42.313Z,89.6
2017-04-06T00:52:44.115Z,89.7
2017-04-06T00:53:46.070Z,89.7
2017-04-06T00:54:47.860Z,89.8
2017-04-06T00:55:49.648Z,89.8
2017-04-06T00:56:51.453Z,90.3
2017-04-06T00:57:53.250Z,90.7
2017-04-06T00:58:55.048Z,90.8
2017-04-06T00:59:57.060Z,90.7
2017-04-06T01:00:58.846Z,90.7
2017-04-06T01:02:00.974Z,90.4
2017-04-06T01:03:02.769Z,90.4
2017-04-06T01:04:04.562Z,90.3
2017-04-06T01:05:06.362Z,90.3
2017-04-06T01:06:08.246Z,90.4
2017-04-06T01:07:10.052Z,90.9
2017-04-06T01:08:11.852Z,91.1
2017-04-06T01:09:13.658Z,91.4
2017-04-06T01:10:15.443Z,91.3
2017-04-06T01:11:17.240Z,91
2017-04-06T01:12:19.123Z,91.2
2017-04-06T01:13:20.909Z,91.1
2017-04-06T01:14:22.694Z,91.3
2017-04-06T01:15:24.487Z,91.6
2017-04-06T01:16:26.615Z,91.8
2017-04-06T01:17:28.412Z,91.8
2017-04-06T01:18:30.420Z,91.8
2017-04-06T01:19:32.212Z,91.5
2017-04-06T01:20:34.676Z,91.7
2017-04-06T01:21:36.469Z,91.7
2017-04-06T01:22:38.249Z,91.7
2017-04-06T01:23:40.043Z,92
2017-04-06T01:24:42.006Z,92.2
2017-04-06T01:25:43.805Z,91.9
2017-04-06T01:26:45.789Z,91.7
2017-04-06T01:27:47.595Z,91.5
2017-04-06T01:28:49.404Z,91.9
2017-04-06T01:29:51.204Z,92.1
2017-04-06T01:30:52.990Z,92.2
2017-04-06T01:31:54.793Z,92.7
2017-04-06T01:32:56.585Z,93.1
2017-04-06T01:33:58.383Z,93
2017-04-06T01:35:00.175Z,93
2017-04-06T01:36:01.970Z,93.3
2017-04-06T01:37:03.749Z,93.5
2017-04-06T01:38:06.059Z,93.1
2017-04-06T01:39:07.843Z,93.2
2017-04-06T01:40:09.973Z,93.2
2017-04-06T01:41:11.753Z,92.1
2017-04-06T01:42:13.552Z,92.2
2017-04-06T01:43:15.584Z,92.2
2017-04-06T01:44:17.366Z,91.9
2017-04-06T01:45:19.159Z,91.8
2017-04-06T01:46:20.951Z,92.1
2017-04-06T01:47:22.738Z,91.9
2017-04-06T01:48:24.540Z,91.7
2017-04-06T01:49:26.330Z,91.7
2017-04-06T01:50:28.125Z,91.6
2017-04-06T01:51:30.175Z,91.7
2017-04-06T01:52:31.969Z,91.7
2017-04-06T01:53:33.756Z,91.9
2017-04-06T01:54:35.542Z,92
2017-04-06T01:55:37.335Z,91.9
2017-04-06T01:56:39.124Z,91.8
2017-04-06T01:57:40.907Z,91.5
2017-04-06T01:58:42.717Z,91.4
2017-04-06T01:59:44.495Z,91.7
2017-04-06T02:00:46.286Z,92.1
2017-04-06T02:01:48.079Z,92.2
2017-04-06T02:02:49.875Z,92.1
2017-04-06T02:03:51.657Z,92
2017-04-06T02:04:53.449Z,91.9
2017-04-06T02:05:55.241Z,91.9
2017-04-06T02:06:57.032Z,92
2017-04-06T02:07:58.831Z,92.1
2017-04-06T02:09:00.622Z,92.1
2017-04-06T02:10:02.412Z,92.2
2017-04-06T02:11:04.217Z,92.1
2017-04-06T02:12:06.006Z,92.1
2017-04-06T02:13:07.799Z,92.1
2017-04-06T02:14:09.924Z,92.2
2017-04-06T02:15:11.719Z,91.8
2017-04-06T02:16:13.510Z,91.6
2017-04-06T02:17:15.304Z,91.5
2017-04-06T02:18:17.097Z,91.6
2017-04-06T02:19:18.873Z,92
2017-04-06T02:20:20.999Z,92
2017-04-06T02:21:22.792Z,92.2
2017-04-06T02:22:24.581Z,92.3
2017-04-06T02:23:26.374Z,92.1
2017-04-06T02:24:28.168Z,92
2017-04-06T02:25:29.959Z,92.2
2017-04-06T02:26:31.754Z,92.3
2017-04-06T02:27:33.547Z,92.3
2017-04-06T02:28:35.339Z,92.4
2017-04-06T02:29:37.123Z,92.5
2017-04-06T02:30:38.920Z,92.4
2017-04-06T02:31:40.716Z,92.3
2017-04-06T02:32:42.497Z,92.4
2017-04-06T02:33:44.308Z,92.7
2017-04-06T02:34:46.088Z,92.8
2017-04-06T02:35:47.890Z,93
2017-04-06T02:36:49.675Z,93.1
2017-04-06T02:37:51.471Z,93.1
2017-04-06T02:38:53.253Z,92.9
2017-04-06T02:39:55.043Z,92.8
2017-04-06T02:40:56.830Z,92.7
2017-04-06T02:41:58.619Z,92.7
2017-04-06T02:43:00.405Z,92.9
2017-04-06T02:44:02.207Z,92.4
2017-04-06T02:45:03.993Z,92.4
2017-04-06T02:46:06.133Z,92.5
2017-04-06T02:47:07.919Z,93
2017-04-06T02:48:09.710Z,92.5
2017-04-06T02:49:11.498Z,92.6
2017-04-06T02:50:13.631Z,92.6
2017-04-06T02:51:15.423Z,92.4
2017-04-06T02:52:17.210Z,92.7
2017-04-06T02:53:19.012Z,92.6
2017-04-06T02:54:21.129Z,92.3
2017-04-06T02:55:22.939Z,92.6
2017-04-06T02:56:24.725Z,92.5
2017-04-06T02:57:26.891Z,92.3
2017-04-06T02:58:28.679Z,92.4
2017-04-06T02:59:30.472Z,92.8
2017-04-06T03:00:32.254Z,93
2017-04-06T03:01:34.038Z,93.3
2017-04-06T03:02:35.826Z,93.5
2017-04-06T03:03:37.612Z,93.8
2017-04-06T03:04:39.396Z,93.9
2017-04-06T03:05:41.197Z,94
2017-04-06T03:06:42.981Z,94.1
2017-04-06T03:07:44.770Z,94.6
2017-04-06T03:08:46.557Z,94.5
2017-04-06T03:09:48.347Z,94.7
2017-04-06T03:10:50.145Z,94.5
2017-04-06T03:11:52.279Z,94.6
2017-04-06T03:12:54.074Z,94.7
2017-04-06T03:13:55.863Z,94.8
2017-04-06T03:14:57.654Z,94.9
2017-04-06T03:15:59.437Z,95.1
2017-04-06T03:17:01.581Z,95.2
2017-04-06T03:18:03.370Z,95.2
2017-04-06T03:19:05.160Z,95.2
2017-04-06T03:20:06.941Z,95.2
2017-04-06T03:21:08.740Z,95.2
2017-04-06T03:22:10.532Z,95.3
2017-04-06T03:23:12.319Z,95
2017-04-06T03:24:14.116Z,94.8
2017-04-06T03:25:16.206Z,94.9
2017-04-06T03:26:18.003Z,95.1
2017-04-06T03:27:19.794Z,95.2
2017-04-06T03:28:21.587Z,95.3
2017-04-06T03:29:23.377Z,95.3
2017-04-06T03:30:25.169Z,95.1
2017-04-06T03:31:26.958Z,94.9
2017-04-06T03:32:28.748Z,95
2017-04-06T03:33:30.535Z,95
2017-04-06T03:34:32.324Z,95
2017-04-06T03:35:34.107Z,95
2017-04-06T03:36:35.896Z,95.1
2017-04-06T03:37:37.693Z,95.1
2017-04-06T03:38:39.493Z,95
2017-04-06T03:39:41.280Z,95
2017-04-06T03:40:43.073Z,94.9
2017-04-06T03:41:44.855Z,94.8
2017-04-06T03:42:46.651Z,95
2017-04-06T03:43:48.439Z,95.2
2017-04-06T03:44:50.228Z,95.2
2017-04-06T03:45:52.020Z,95
2017-04-06T03:46:54.137Z,95.1
2017-04-06T03:47:55.929Z,95.1
2017-04-06T03:48:57.721Z,95.4
2017-04-06T03:49:59.507Z,95.6
2017-04-06T03:51:01.297Z,95.6
2017-04-06T03:52:03.432Z,95.8
2017-04-06T03:53:05.562Z,95.7
2017-04-06T03:54:07.354Z,95.6
2017-04-06T03:55:09.141Z,95.7
2017-04-06T03:56:10.933Z,95.8
2017-04-06T03:57:12.738Z,95.8
2017-04-06T03:58:14.522Z,95.7
2017-04-06T03:59:16.305Z,95.7
2017-04-06T04:00:18.086Z,95.7
2017-04-06T04:01:19.871Z,95.7
2017-04-06T04:02:21.670Z,95.8
2017-04-06T04:03:23.461Z,95.7
2017-04-06T04:04:25.246Z,95.8
2017-04-06T04:05:27.041Z,96
2017-04-06T04:06:28.817Z,96
2017-04-06T04:07:30.613Z,96
2017-04-06T04:08:32.400Z,95.9
2017-04-06T04:09:34.202Z,95.9
2017-04-06T04:10:35.981Z,95.9
2017-04-06T04:11:37.774Z,96
2017-04-06T04:12:39.570Z,95.8
2017-04-06T04:13:41.355Z,95.9
2017-04-06T04:14:43.140Z,95.9
2017-04-06T04:15:44.929Z,95.8
2017-04-06T04:16:46.716Z,95.8
2017-04-06T04:17:48.505Z,95.7
2017-04-06T04:18:50.291Z,96
2017-04-06T04:19:52.075Z,96.2
2017-04-06T04:20:53.863Z,96
2017-04-06T04:21:55.645Z,95.8
2017-04-06T04:22:57.763Z,95.9
2017-04-06T04:23:59.558Z,96
2017-04-06T04:25:01.344Z,96.1
2017-04-06T04:26:03.132Z,96.4
2017-04-06T04:27:05.260Z,96.6
2017-04-06T04:28:07.034Z,96.4
2017-04-06T04:29:08.825Z,96.6
2017-04-06T04:30:10.610Z,96.6
2017-04-06T04:31:12.405Z,96.6
2017-04-06T04:32:14.189Z,96.4
2017-04-06T04:33:15.986Z,96.3
2017-04-06T04:34:17.777Z,96.3
2017-04-06T04:35:19.909Z,96.6
2017-04-06T04:36:21.695Z,96.8
2017-04-06T04:37:23.487Z,96.8
2017-04-06T04:38:25.275Z,96.8
2017-04-06T04:39:27.067Z,96.9
2017-04-06T04:40:28.856Z,96.9
2017-04-06T04:41:30.656Z,97
2017-04-06T04:42:32.440Z,96.9
2017-04-06T04:43:34.241Z,96.9
2017-04-06T04:44:36.044Z,96.7
2017-04-06T04:45:39.697Z,96.7
2017-04-06T04:46:43.498Z,96.9
2017-04-06T04:47:45.332Z,97.4
2017-04-06T04:48:47.138Z,97.2
2017-04-06T04:49:48.971Z,97.1
2017-04-06T04:50:51.105Z,97.2
2017-04-06T04:51:52.889Z,97.3
2017-04-06T04:52:54.670Z,97.3
2017-04-06T04:53:56.457Z,97.3
2017-04-06T04:54:58.249Z,97.3
2017-04-06T04:56:00.035Z,97.3
2017-04-06T04:57:01.876Z,97.2
2017-04-06T04:58:03.674Z,97.5
2017-04-06T04:59:05.468Z,97.5
2017-04-06T05:00:07.265Z,97.5
2017-04-06T05:01:09.791Z,97.5
2017-04-06T05:02:11.593Z,97.6
2017-04-06T05:03:13.380Z,97.5
2017-04-06T05:04:15.562Z,97.3
2017-04-06T05:05:17.347Z,97.6
2017-04-06T05:06:19.185Z,97.6
2017-04-06T05:07:20.972Z,97.5
2017-04-06T05:08:22.769Z,97.6
2017-04-06T05:09:24.560Z,97.7
2017-04-06T05:10:26.351Z,97.7
2017-04-06T05:11:28.154Z,97.7
2017-04-06T05:12:29.951Z,97.6
2017-04-06T05:13:31.741Z,97.7
2017-04-06T05:14:33.567Z,97.7
2017-04-06T05:15:35.355Z,97.9
2017-04-06T05:16:37.191Z,97.8
2017-04-06T05:17:38.978Z,97.8
2017-04-06T05:18:40.770Z,98.1
2017-04-06T05:19:42.621Z,98.1
2017-04-06T05:20:44.405Z,98.2
2017-04-06T05:21:46.235Z,98.2
2017-04-06T05:22:48.015Z,98.3
2017-04-06T05:23:49.803Z,97.9
2017-04-06T05:24:51.672Z,97.7
2017-04-06T05:25:53.466Z,97.8
2017-04-06T05:26:55.586Z,97.6
2017-04-06T05:27:57.371Z,97.5
2017-04-06T05:28:59.173Z,97.3
2017-04-06T05:30:00.987Z,97.2
2017-04-06T05:31:02.782Z,97.1
2017-04-06T05:32:04.573Z,97.4
2017-04-06T05:33:06.371Z,97.3
2017-04-06T05:34:08.163Z,97.2
2017-04-06T05:35:09.958Z,97.1
2017-04-06T05:36:11.755Z,97.2
2017-04-06T05:37:13.877Z,97.4
2017-04-06T05:38:15.671Z,97.4
2017-04-06T05:39:17.488Z,97.4
2017-04-06T05:40:19.266Z,97
2017-04-06T05:41:21.061Z,96.6
2017-04-06T05:42:22.858Z,96.2
2017-04-06T05:43:24.652Z,96.1
2017-04-06T05:44:26.593Z,96
2017-04-06T05:45:28.387Z,96.2
2017-04-06T05:46:30.182Z,96.4
2017-04-06T05:47:32.051Z,96.2
2017-04-06T05:48:33.845Z,96.1
2017-04-06T05:49:35.700Z,96.2
2017-04-06T05:50:37.502Z,96.1
2017-04-06T05:51:39.369Z,96.2
2017-04-06T05:52:41.163Z,96.1
2017-04-06T05:53:42.949Z,95.6
2017-04-06T05:54:44.769Z,95.6
2017-04-06T05:55:46.562Z,95.1
2017-04-06T05:56:48.354Z,95.5
2017-04-06T05:57:50.153Z,95.6
2017-04-06T05:58:52.021Z,95.3
2017-04-06T05:59:53.821Z,95.3
2017-04-06T06:00:55.694Z,95.5
2017-04-06T06:01:57.476Z,95.2
2017-04-06T06:02:59.268Z,95.3
2017-04-06T06:04:01.127Z,95.3
2017-04-06T06:05:02.919Z,95.3
2017-04-06T06:06:04.707Z,94.8
2017-04-06T06:07:06.500Z,94.8
2017-04-06T06:08:08.321Z,94.7
2017-04-06T06:09:10.107Z,95
2017-04-06T06:10:11.998Z,94.7
2017-04-06T06:11:13.821Z,94.9
2017-04-06T06:12:15.716Z,94.9
2017-04-06T06:13:17.493Z,94.5
2017-04-06T06:14:19.729Z,94.3
2017-04-06T06:15:21.512Z,94.3
2017-04-06T06:16:23.306Z,94
2017-04-06T06:17:25.096Z,94.3
2017-04-06T06:18:26.874Z,93.6
2017-04-06T06:19:28.667Z,93.6
2017-04-06T06:20:30.453Z,94
2017-04-06T06:21:32.348Z,93.8
2017-04-06T06:22:34.137Z,93.9
2017-04-06T06:23:36.019Z,93.8
2017-04-06T06:24:37.815Z,93.3
2017-04-06T06:25:39.613Z,93.5
2017-04-06T06:26:41.427Z,93.3
2017-04-06T06:27:43.229Z,93.1
2017-04-06T06:28:45.026Z,93.4
2017-04-06T06:29:46.823Z,93
2017-04-06T06:30:48.706Z,92.8
2017-04-06T06:31:50.497Z,92
2017-04-06T06:32:52.313Z,91.7
2017-04-06T06:33:54.104Z,91.4
2017-04-06T06:34:55.898Z,91.3
2017-04-06T06:35:57.706Z,91.2
2017-04-06T06:36:59.503Z,91.5
2017-04-06T06:38:01.299Z,91.9
2017-04-06T06:39:03.096Z,91.4
2017-04-06T06:40:04.874Z,90.8
2017-04-06T06:41:06.678Z,91.2
2017-04-06T06:42:08.537Z,91.5
2017-04-06T06:43:10.663Z,90.8
2017-04-06T06:44:12.447Z,90.6
2017-04-06T06:45:14.388Z,90.7
2017-04-06T06:46:16.534Z,90.4
2017-04-06T06:47:18.695Z,90.2
2017-04-06T06:48:20.504Z,90.6
2017-04-06T06:49:22.635Z,90
2017-04-06T06:50:24.479Z,90.4
2017-04-06T06:51:26.277Z,89.5
2017-04-06T06:52:28.063Z,89.3
2017-04-06T06:53:29.855Z,89.7
2017-04-06T06:54:31.648Z,88.8
2017-04-06T06:55:33.942Z,88.2
2017-04-06T06:56:36.034Z,88
2017-04-06T06:57:37.831Z,88.3
2017-04-06T06:58:39.651Z,88.5
2017-04-06T06:59:41.435Z,88.9
2017-04-06T07:00:43.231Z,88.3
2017-04-06T07:01:45.357Z,88
2017-04-06T07:02:47.152Z,87.9
2017-04-06T07:03:49.412Z,87.4
2017-04-06T07:04:51.203Z,87.3
2017-04-06T07:05:52.992Z,87.5
2017-04-06T07:06:54.914Z,87.4
2017-04-06T07:07:56.710Z,87.5
2017-04-06T07:08:58.506Z,87
2017-04-06T07:10:00.297Z,86.8
2017-04-06T07:11:02.427Z,86.9
2017-04-06T07:12:04.706Z,86.2
2017-04-06T07:13:06.490Z,85.9
2017-04-06T07:14:08.279Z,86.4
2017-04-06T07:15:10.065Z,86.3
2017-04-06T07:16:11.871Z,85.6
2017-04-06T07:17:13.695Z,85.4
2017-04-06T07:18:15.492Z,84.5
2017-04-06T07:19:17.295Z,85.5
2017-04-06T07:20:19.098Z,86.5
2017-04-06T07:21:20.906Z,85.5
2017-04-06T07:22:22.706Z,84.8
2017-04-06T07:23:24.498Z,85.4
2017-04-06T07:24:26.363Z,85.1
2017-04-06T07:25:28.155Z,84.8
2017-04-06T07:26:29.940Z,84
2017-04-06T07:27:31.732Z,83.2
2017-04-06T07:28:33.883Z,83.1
2017-04-06T07:29:35.680Z,84.6
2017-04-06T07:30:37.474Z,83.7
2017-04-06T07:31:39.264Z,82.2
2017-04-06T07:32:41.059Z,82.8
2017-04-06T07:33:42.849Z,82.5
2017-04-06T07:34:44.711Z,83.7
2017-04-06T07:35:46.503Z,81.7
2017-04-06T07:36:48.294Z,81.9
2017-04-06T07:37:50.098Z,81.6
2017-04-06T07:38:51.889Z,80.7
2017-04-06T07:39:53.712Z,80.9
2017-04-06T07:40:55.631Z,80.6
2017-04-06T07:41:57.422Z,80.3
2017-04-06T07:42:59.216Z,81.2
2017-04-06T07:44:01.007Z,82
2017-04-06T07:45:02.802Z,81.1
2017-04-06T07:46:04.597Z,80.4
2017-04-06T07:47:06.920Z,79.9
2017-04-06T07:48:08.711Z,79.7
2017-04-06T07:49:10.518Z,79.3
2017-04-06T07:50:12.312Z,78.2
2017-04-06T07:51:14.099Z,79
2017-04-06T07:52:15.902Z,78.3
2017-04-06T07:53:17.696Z,78.5
2017-04-06T07:54:19.490Z,77.1
2017-04-06T07:55:21.285Z,77.4
2017-04-06T07:56:23.074Z,75.9
2017-04-06T07:57:24.882Z,76.9
2017-04-06T07:58:27.020Z,75.6
2017-04-06T07:59:29.065Z,75
2017-04-06T08:00:30.853Z,75.4
2017-04-06T08:01:32.669Z,74.6
2017-04-06T08:02:34.450Z,75
2017-04-06T08:03:36.246Z,73.4
2017-04-06T08:04:38.038Z,73.5
2017-04-06T08:05:40.169Z,74.6
2017-04-06T08:06:41.966Z,72.9
2017-04-06T08:07:43.999Z,74.3
2017-04-06T08:08:45.791Z,73.5
2017-04-06T08:09:47.578Z,72.7
2017-04-06T08:10:49.386Z,72.4
2017-04-06T08:11:51.176Z,72.9
2017-04-06T08:12:53.304Z,74.5
2017-04-06T08:13:55.109Z,74.2
2017-04-06T08:14:56.908Z,75.1
2017-04-06T08:15:58.838Z,74.3
2017-04-06T08:17:00.983Z,72
2017-04-06T08:18:02.779Z,71.9
2017-04-06T08:19:04.591Z,72
2017-04-06T08:20:06.384Z,72.3
2017-04-06T08:21:08.183Z,73.2
2017-04-06T08:22:09.969Z,73.3
2017-04-06T08:23:11.772Z,72.7
2017-04-06T08:24:13.856Z,74
2017-04-06T08:25:15.658Z,72
2017-04-06T08:26:17.453Z,71.5
2017-04-06T08:27:19.241Z,69.2
2017-04-06T08:28:21.035Z,69.9
2017-04-06T08:29:22.828Z,71.1
2017-04-06T08:30:24.621Z,68.7
2017-04-06T08:31:26.659Z,69.6
2017-04-06T08:32:28.446Z,68.8
2017-04-06T08:33:30.515Z,69.9
2017-04-06T08:34:32.322Z,68.8
2017-04-06T08:35:34.118Z,69
2017-04-06T08:36:35.916Z,69
2017-04-06T08:37:37.713Z,68.2
2017-04-06T08:38:39.528Z,68
2017-04-06T08:39:41.586Z,65.2
2017-04-06T08:40:43.386Z,66
2017-04-06T08:41:45.183Z,66.6
2017-04-06T08:42:46.985Z,65.7
2017-04-06T08:43:48.786Z,67.3
2017-04-06T08:44:50.923Z,68.3
2017-04-06T08:45:52.718Z,66.4
2017-04-06T08:46:54.527Z,66.8
2017-04-06T08:47:56.627Z,65.4
2017-04-06T08:48:58.426Z,63.8
2017-04-06T08:50:00.225Z,64.6
2017-04-06T08:51:02.028Z,64
2017-04-06T08:52:03.827Z,65.3
2017-04-06T08:53:05.632Z,65.4
2017-04-06T08:54:07.437Z,65.5
2017-04-06T08:55:09.231Z,66.3
2017-04-06T08:56:11.308Z,67.3
2017-04-06T08:57:13.104Z,66.8
2017-04-06T08:58:14.904Z,66.3
2017-04-06T08:59:16.701Z,66.2
2017-04-06T09:00:18.516Z,65.6
2017-04-06T09:01:20.316Z,64.9
2017-04-06T09:02:22.124Z,63
2017-04-06T09:03:24.035Z,64
2017-04-06T09:04:25.851Z,63.3
2017-04-06T09:05:27.836Z,63.8
2017-04-06T09:06:29.644Z,62.5
2017-04-06T09:07:31.458Z,62.9
2017-04-06T09:08:33.595Z,62.7
2017-04-06T09:09:35.738Z,62.2
2017-04-06T09:10:37.538Z,61.7
2017-04-06T09:11:39.358Z,62
2017-04-06T09:12:41.332Z,60.4
2017-04-06T09:13:43.144Z,61.4
2017-04-06T09:14:45.295Z,61.4
2017-04-06T09:15:47.449Z,62
2017-04-06T09:16:49.263Z,60.7
2017-04-06T09:17:51.071Z,61.4
2017-04-06T09:18:52.876Z,62
2017-04-06T09:19:54.697Z,61
2017-04-06T09:20:56.505Z,61.6
2017-04-06T09:21:58.317Z,59.8
2017-04-06T09:23:00.245Z,59.8
2017-04-06T09:24:02.056Z,60.1
2017-04-06T09:25:03.861Z,60.6
2017-04-06T09:26:05.671Z,58.7
2017-04-06T09:27:07.819Z,60
2017-04-06T09:28:09.877Z,60.5
2017-04-06T09:29:12.037Z,60.4
2017-04-06T09:30:13.841Z,58.8
2017-04-06T09:31:15.651Z,58.4
2017-04-06T09:32:17.817Z,57.9
2017-04-06T09:33:19.921Z,59.7
2017-04-06T09:34:21.727Z,60.2
2017-04-06T09:35:23.549Z,59.7
2017-04-06T09:36:25.361Z,59.6
2017-04-06T09:37:27.177Z,59.5
2017-04-06T09:38:28.982Z,60.7
2017-04-06T09:39:30.802Z,58.8
2017-04-06T09:40:32.607Z,60.7
2017-04-06T09:41:34.430Z,58
2017-04-06T09:42:36.235Z,57.8
2017-04-06T09:43:38.047Z,56.6
2017-04-06T09:44:40.460Z,56.4
2017-04-06T09:45:42.272Z,56.9
2017-04-06T09:46:44.082Z,55.2
2017-04-06T09:47:45.898Z,56.9
2017-04-06T09:48:48.045Z,56.5
2017-04-06T09:49:49.853Z,58.3
2017-04-06T09:50:51.666Z,55.7
2017-04-06T09:51:53.473Z,54.8
2017-04-06T09:52:55.280Z,55.3
2017-04-06T09:53:57.087Z,55.2
2017-04-06T09:54:59.234Z,53.7
2017-04-06T09:56:01.035Z,52.5
2017-04-06T09:57:02.835Z,52.6
2017-04-06T09:58:04.654Z,53.2
2017-04-06T09:59:06.464Z,52.9
2017-04-06T10:00:08.282Z,54.2
2017-04-06T10:01:10.077Z,51
2017-04-06T10:02:11.894Z,50.7
2017-04-06T10:03:14.041Z,51.4
2017-04-06T10:04:15.857Z,54.3
2017-04-06T10:05:17.662Z,55.2
2017-04-06T10:06:19.472Z,54.4
2017-04-06T10:07:21.290Z,54.6
2017-04-06T10:08:23.099Z,54.1
2017-04-06T10:09:24.892Z,54.9
2017-04-06T10:10:26.702Z,52.2
2017-04-06T10:11:28.509Z,51.7
2017-04-06T10:12:30.322Z,51.8
2017-04-06T10:13:32.127Z,50.3
2017-04-06T10:14:34.283Z,52.7
2017-04-06T10:15:36.093Z,52.7
2017-04-06T10:16:37.905Z,52
2017-04-06T10:17:39.709Z,51.1
2017-04-06T10:18:41.508Z,51.4
2017-04-06T10:19:43.320Z,49.2
2017-04-06T10:20:45.131Z,50.8
2017-04-06T10:21:46.945Z,51.7
2017-04-06T10:22:48.742Z,49.4
2017-04-06T10:23:50.554Z,47.5
2017-04-06T10:24:52.364Z,46.5
2017-04-06T10:25:54.176Z,45.8
2017-04-06T10:26:55.987Z,46.1
2017-04-06T10:27:57.802Z,44.6
2017-04-06T10:28:59.621Z,45.9
2017-04-06T10:30:01.438Z,45.9
2017-04-06T10:31:03.232Z,46.9
2017-04-06T10:32:05.048Z,46.6
2017-04-06T10:33:06.858Z,47.2
2017-04-06T10:34:08.667Z,45.6
2017-04-06T10:35:10.469Z,46.2
2017-04-06T10:36:12.280Z,47.4
2017-04-06T10:37:14.089Z,48.6
2017-04-06T10:38:15.909Z,44.9
2017-04-06T10:39:17.722Z,45.5
2017-04-06T10:40:19.528Z,47.7
2017-04-06T10:41:21.683Z,47
2017-04-06T10:42:23.480Z,45.7
2017-04-06T10:43:25.295Z,43.8
2017-04-06T10:44:27.103Z,43.9
2017-04-06T10:45:28.923Z,45.9
2017-04-06T10:46:30.719Z,42.7
2017-04-06T10:47:32.535Z,43
2017-04-06T10:48:34.680Z,45.5
2017-04-06T10:49:36.487Z,44.8
2017-04-06T10:50:38.294Z,46.6
2017-04-06T10:51:40.438Z,44.5
2017-04-06T10:52:42.262Z,44.5
2017-04-06T10:53:44.074Z,41.4
2017-04-06T10:54:45.911Z,42.2
2017-04-06T10:55:48.378Z,43.3
2017-04-06T10:56:50.456Z,44.2
2017-04-06T10:57:52.587Z,46.4
2017-04-06T10:58:56.040Z,44.6
2017-04-06T10:59:58.047Z,44.3
2017-04-06T11:01:00.788Z,44.5
2017-04-06T11:02:03.143Z,44.5
2017-04-06T11:03:06.167Z,43.1
2017-04-06T11:04:08.868Z,45.4
2017-04-06T11:05:10.970Z,41.9
2017-04-06T11:06:13.348Z,42.4
2017-04-06T11:07:15.923Z,41.4
2017-04-06T11:08:18.189Z,42.5
2017-04-06T11:09:20.247Z,42.8
2017-04-06T11:10:22.588Z,42.3
2017-04-06T11:11:24.802Z,42.9
2017-04-06T11:12:27.024Z,43.4
2017-04-06T11:13:30.482Z,42.5
2017-04-06T11:14:32.759Z,42.1
2017-04-06T11:15:34.578Z,42.8
2017-04-06T11:16:37.379Z,41.8
2017-04-06T11:17:39.440Z,41.3
2017-04-06T11:18:41.585Z,42.5
2017-04-06T11:19:43.630Z,41.7
2017-04-06T11:20:45.944Z,43.5
2017-04-06T11:21:48.160Z,41.9
2017-04-06T11:22:50.531Z,42.9
2017-04-06T11:23:53.105Z,42.9
2017-04-06T11:24:56.793Z,42.3
2017-04-06T11:25:58.860Z,42
2017-04-06T11:27:00.728Z,42.8
2017-04-06T11:28:03.149Z,43
2017-04-06T11:29:05.582Z,42.9
2017-04-06T11:30:07.649Z,43.2
2017-04-06T11:31:09.541Z,42.3
2017-04-06T11:32:11.834Z,41.5
2017-04-06T11:33:14.878Z,42.2
2017-04-06T11:34:16.818Z,41.6
2017-04-06T11:35:18.792Z,40.1
2017-04-06T11:36:20.754Z,41.1
2017-04-06T11:37:22.575Z,40
2017-04-06T11:38:24.724Z,40.1
2017-04-06T11:39:26.538Z,41
2017-04-06T11:40:28.361Z,39.2
2017-04-06T11:41:30.174Z,41.4
2017-04-06T11:42:31.981Z,41
2017-04-06T11:43:34.134Z,39.6
2017-04-06T11:44:36.288Z,40.4
2017-04-06T11:45:38.179Z,38.7
2017-04-06T11:46:39.991Z,39.3
2017-04-06T11:47:41.805Z,39.7
2017-04-06T11:48:43.629Z,40.8
2017-04-06T11:49:45.449Z,41.7
2017-04-06T11:50:47.266Z,41.4
2017-04-06T11:51:49.083Z,41.4
2017-04-06T11:52:50.907Z,41.6
2017-04-06T11:53:52.729Z,41.5
2017-04-06T11:54:54.543Z,42.7
2017-04-06T11:55:56.359Z,42
2017-04-06T11:56:58.168Z,42.7
2017-04-06T11:57:59.985Z,41.9
2017-04-06T11:59:01.870Z,41.7
2017-04-06T12:00:03.676Z,43
2017-04-06T12:01:05.499Z,43.6
2017-04-06T12:02:07.307Z,42.8
2017-04-06T12:03:09.458Z,44
2017-04-06T12:04:11.279Z,43
2017-04-06T12:05:13.106Z,42.6
2017-04-06T12:06:15.258Z,43.8
2017-04-06T12:07:17.229Z,44.7
2017-04-06T12:08:19.042Z,44
2017-04-06T12:09:21.213Z,42.5
2017-04-06T12:10:23.364Z,41.6
2017-04-06T12:11:25.187Z,41.7
2017-04-06T12:12:27.004Z,42.7
2017-04-06T12:13:28.808Z,42.8
2017-04-06T12:14:30.639Z,43.2
2017-04-06T12:15:32.518Z,41.4
2017-04-06T12:16:34.348Z,44
2017-04-06T12:17:36.165Z,43.8
2017-04-06T12:18:37.986Z,45.3
2017-04-06T12:19:39.808Z,46.3
2017-04-06T12:20:41.636Z,45.5
2017-04-06T12:21:43.454Z,45.2
2017-04-06T12:22:45.622Z,43.7
2017-04-06T12:23:47.763Z,43.2
2017-04-06T12:24:49.581Z,42.8
2017-04-06T12:25:51.392Z,43.6
2017-04-06T12:26:53.220Z,43
2017-04-06T12:27:55.027Z,43.3
2017-04-06T12:28:56.837Z,43.9
2017-04-06T12:29:58.647Z,44.6
2017-04-06T12:31:00.461Z,45.5
2017-04-06T12:32:02.623Z,44.4
2017-04-06T12:33:04.438Z,44.6
2017-04-06T12:34:06.255Z,43.7
2017-04-06T12:35:08.398Z,43.5
2017-04-06T12:36:10.210Z,44
2017-04-06T12:37:12.049Z,43.8
2017-04-06T12:38:13.866Z,43.6
2017-04-06T12:39:15.676Z,43.6
2017-04-06T12:40:17.489Z,44.3
2017-04-06T12:41:19.315Z,42.6
2017-04-06T12:42:21.121Z,43.5
2017-04-06T12:43:23.219Z,43.2
2017-04-06T12:44:26.558Z,42.3
2017-04-06T12:45:28.851Z,42.6
2017-04-06T12:46:31.518Z,44
2017-04-06T12:47:34.486Z,43.4
2017-04-06T12:48:37.628Z,43.5
2017-04-06T12:49:39.955Z,44.1
2017-04-06T12:50:43.248Z,45.3
2017-04-06T12:51:46.237Z,45.8
2017-04-06T12:52:49.219Z,44.9
2017-04-06T12:53:51.861Z,45.7
2017-04-06T12:54:55.958Z,45.2
2017-04-06T12:55:58.835Z,45.5
2017-04-06T12:57:01.326Z,46
2017-04-06T12:58:03.937Z,44.1
2017-04-06T12:59:06.789Z,43.5
2017-04-06T13:00:11.041Z,43.6
2017-04-06T13:01:13.714Z,43.3
2017-04-06T13:02:17.152Z,43.2
2017-04-06T13:03:19.796Z,42.4
2017-04-06T13:04:26.279Z,42.7
2017-04-06T13:05:28.405Z,43.6
2017-04-06T13:06:30.707Z,43.6
2017-04-06T13:07:34.626Z,44.9
2017-04-06T13:08:38.029Z,43.9
2017-04-06T13:09:40.706Z,44.3
2017-04-06T13:10:48.645Z,44.4
2017-04-06T13:11:51.819Z,43.4
2017-04-06T13:12:54.541Z,43.1
2017-04-06T13:14:00.355Z,44.8
2017-04-06T13:15:03.135Z,43.7
2017-04-06T13:16:05.652Z,44.4
2017-04-06T13:17:10.039Z,43.4
2017-04-06T13:18:11.917Z,44.3
2017-04-06T13:20:12.708Z,45.5
2017-04-06T13:21:15.173Z,46.4
2017-04-06T13:22:17.029Z,45.3
2017-04-06T13:23:18.871Z,45.7
2017-04-06T13:24:20.762Z,45.6
2017-04-06T13:25:22.566Z,44.6
2017-04-06T13:26:40.599Z,45.3
2017-04-06T13:27:42.749Z,45
2017-04-06T13:28:45.332Z,47
2017-04-06T13:29:47.176Z,46.8
2017-04-06T13:30:48.983Z,46.2
2017-04-06T13:31:50.805Z,46.2
2017-04-06T13:32:52.600Z,46.7
2017-04-06T13:33:54.425Z,46.8
2017-04-06T13:34:56.239Z,47.3
2017-04-06T13:35:58.043Z,48.4
2017-04-06T13:36:59.850Z,48.1
2017-04-06T13:38:02.348Z,48.4
2017-04-06T13:39:04.147Z,48.6
2017-04-06T13:40:06.648Z,49
2017-04-06T13:41:09.696Z,48
2017-04-06T13:42:11.501Z,48.7
2017-04-06T13:43:13.317Z,48.5
2017-04-06T13:44:15.116Z,48.2
2017-04-06T13:45:16.934Z,48.9
2017-04-06T13:46:18.741Z,49.8
2017-04-06T13:47:20.550Z,48.7
2017-04-06T13:48:22.378Z,49.4
2017-04-06T13:49:24.190Z,50
2017-04-06T13:50:25.998Z,50.3
2017-04-06T13:51:27.803Z,49.4